createdAt,value
2023-03-07T00:00:16.138Z,69.57
2023-03-07T00:03:09.851Z,69.19
2023-03-07T00:05:43.640Z,68.97
2023-03-07T00:08:17.589Z,68.79
2023-03-07T00:10:51.180Z,68.63
2023-03-07T00:13:26.092Z,68.72
2023-03-07T00:16:04.231Z,68.80
2023-03-07T00:18:39.556Z,69.02
2023-03-07T00:21:15.368Z,69.15
2023-03-07T00:23:50.167Z,69.38
2023-03-07T00:26:25.884Z,69.33
2023-03-07T00:28:59.633Z,69.48
2023-03-07T00:31:33.432Z,69.71
2023-03-07T00:34:07.531Z,69.64
2023-03-07T00:36:40.957Z,69.74
2023-03-07T00:39:14.977Z,69.81
2023-03-07T00:41:48.865Z,69.77
2023-03-07T00:44:22.863Z,69.86
2023-03-07T00:46:57.103Z,70.03
2023-03-07T00:49:31.375Z,69.96
2023-03-07T00:52:05.273Z,70.06
2023-03-07T00:54:38.986Z,70.06
2023-03-07T00:57:12.500Z,69.81
2023-03-07T00:59:46.645Z,69.52
2023-03-07T01:02:20.740Z,69.54
2023-03-07T01:04:58.295Z,69.60
2023-03-07T01:07:32.829Z,69.57
2023-03-07T01:10:07.187Z,69.62
2023-03-07T01:12:41.034Z,69.53
2023-03-07T01:15:15.660Z,69.52
2023-03-07T01:17:49.559Z,69.53
2023-03-07T01:20:23.693Z,69.47
2023-03-07T01:22:57.788Z,69.38
2023-03-07T01:25:31.943Z,68.88
2023-03-07T01:28:06.301Z,68.46
2023-03-07T01:30:40.193Z,68.48
2023-03-07T01:33:13.756Z,68.41
2023-03-07T01:35:47.704Z,68.46
2023-03-07T01:38:21.822Z,68.36
2023-03-07T01:40:56.609Z,68.38
2023-03-07T01:43:33.477Z,68.48
2023-03-07T01:46:36.264Z,68.48
2023-03-07T01:49:13.671Z,68.64
2023-03-07T01:51:50.033Z,68.87
2023-03-07T01:54:24.995Z,68.94
2023-03-07T01:57:00.242Z,68.98
2023-03-07T01:59:37.233Z,69.05
2023-03-07T02:02:17.404Z,69.02
2023-03-07T02:04:56.691Z,69.05
2023-03-07T02:07:35.562Z,68.99
2023-03-07T02:10:11.737Z,69.10
2023-03-07T02:12:46.071Z,69.18
2023-03-07T02:15:20.152Z,69.23
2023-03-07T02:17:54.109Z,69.29
2023-03-07T02:20:38.280Z,69.47
2023-03-07T02:23:23.948Z,69.66
2023-03-07T02:26:01.809Z,69.74
2023-03-07T02:28:36.531Z,69.79
2023-03-07T02:31:12.073Z,69.81
2023-03-07T02:33:46.009Z,69.94
2023-03-07T02:36:24.218Z,70.05
2023-03-07T02:39:08.289Z,70.03
2023-03-07T02:41:43.080Z,70.02
2023-03-07T02:44:24.284Z,69.99
2023-03-07T02:46:57.948Z,69.98
2023-03-07T02:49:33.257Z,70.09
2023-03-07T02:52:07.601Z,70.25
2023-03-07T02:54:41.373Z,70.37
2023-03-07T02:57:15.530Z,70.50
2023-03-07T02:59:49.577Z,70.78
2023-03-07T03:02:23.335Z,71.12
2023-03-07T03:04:56.912Z,71.40
2023-03-07T03:07:31.170Z,71.73
2023-03-07T03:10:05.648Z,71.90
2023-03-07T03:12:39.292Z,71.94
2023-03-07T03:15:14.817Z,71.90
2023-03-07T03:17:48.350Z,71.88
2023-03-07T03:20:22.094Z,71.99
2023-03-07T03:22:56.695Z,71.99
2023-03-07T03:25:30.354Z,71.98
2023-03-07T03:28:04.466Z,71.96
2023-03-07T03:30:38.171Z,72.06
2023-03-07T03:33:12.130Z,72.03
2023-03-07T03:35:46.196Z,71.81
2023-03-07T03:38:20.250Z,71.90
2023-03-07T03:40:55.048Z,72.02
2023-03-07T03:43:28.949Z,72.13
2023-03-07T03:46:02.592Z,72.12
2023-03-07T03:48:36.520Z,72.22
2023-03-07T03:51:12.680Z,72.04
2023-03-07T03:53:46.476Z,71.89
2023-03-07T03:56:21.749Z,71.98
2023-03-07T03:58:57.041Z,72.23
2023-03-07T04:01:31.638Z,72.07
2023-03-07T04:04:05.241Z,71.87
2023-03-07T04:06:39.073Z,71.62
2023-03-07T04:09:12.752Z,71.29
2023-03-07T04:11:48.931Z,71.12
2023-03-07T04:14:23.223Z,71.08
2023-03-07T04:16:57.820Z,70.90
2023-03-07T04:19:32.158Z,71.01
2023-03-07T04:22:05.629Z,71.31
2023-03-07T04:24:39.838Z,71.59
2023-03-07T04:27:13.990Z,71.47
2023-03-07T04:29:47.758Z,71.82
2023-03-07T04:32:26.481Z,71.92
2023-03-07T04:35:00.505Z,72.11
2023-03-07T04:37:34.859Z,72.39
2023-03-07T04:40:09.860Z,72.44
2023-03-07T04:42:43.586Z,72.60
2023-03-07T04:45:18.465Z,72.80
2023-03-07T04:47:52.176Z,72.89
2023-03-07T04:50:26.362Z,72.80
2023-03-07T04:53:00.435Z,72.34
2023-03-07T04:55:34.041Z,72.20
2023-03-07T04:58:11.346Z,72.20
2023-03-07T05:00:47.226Z,72.53
2023-03-07T05:03:20.711Z,72.82
2023-03-07T05:05:54.302Z,72.86
2023-03-07T05:08:28.295Z,72.84
2023-03-07T05:11:02.248Z,72.95
2023-03-07T05:13:37.027Z,73.01
2023-03-07T05:16:11.768Z,72.83
2023-03-07T05:18:45.633Z,72.90
2023-03-07T05:21:19.735Z,73.10
2023-03-07T05:23:53.597Z,73.08
2023-03-07T05:26:27.302Z,72.89
2023-03-07T05:29:01.165Z,73.09
2023-03-07T05:31:34.922Z,73.23
2023-03-07T05:34:11.856Z,73.43
2023-03-07T05:36:45.998Z,73.29
2023-03-07T05:39:20.135Z,73.09
2023-03-07T05:41:53.495Z,73.03
2023-03-07T05:44:27.861Z,72.83
2023-03-07T05:47:02.613Z,73.16
2023-03-07T05:49:36.602Z,73.08
2023-03-07T05:52:11.309Z,73.17
2023-03-07T05:54:45.061Z,73.39
2023-03-07T05:57:19.208Z,73.72
2023-03-07T05:59:53.133Z,74.10
2023-03-07T06:02:27.171Z,73.83
2023-03-07T06:05:01.249Z,73.78
2023-03-07T06:07:35.053Z,73.77
2023-03-07T06:10:11.870Z,73.70
2023-03-07T06:12:54.888Z,73.66
2023-03-07T06:15:32.381Z,73.44
2023-03-07T06:18:11.502Z,73.49
2023-03-07T06:20:46.644Z,73.57
2023-03-07T06:23:28.955Z,73.48
2023-03-07T06:26:08.299Z,73.51
2023-03-07T06:28:46.712Z,73.23
2023-03-07T06:31:24.527Z,73.18
2023-03-07T06:33:58.377Z,73.14
2023-03-07T06:36:32.637Z,73.25
2023-03-07T06:39:08.095Z,73.11
2023-03-07T06:41:42.138Z,72.96
2023-03-07T06:44:16.256Z,72.88
2023-03-07T06:46:50.419Z,73.09
2023-03-07T06:49:26.009Z,73.37
2023-03-07T06:52:00.695Z,73.34
2023-03-07T06:54:35.226Z,73.14
2023-03-07T06:57:09.494Z,72.96
2023-03-07T06:59:43.953Z,72.67
2023-03-07T07:02:18.457Z,72.52
2023-03-07T07:04:52.498Z,72.80
2023-03-07T07:07:27.039Z,72.92
2023-03-07T07:10:01.756Z,72.35
2023-03-07T07:12:36.386Z,72.52
2023-03-07T07:15:12.193Z,72.45
2023-03-07T07:17:46.008Z,72.44
2023-03-07T07:20:21.068Z,71.88
2023-03-07T07:22:54.792Z,71.64
2023-03-07T07:25:28.298Z,70.64
2023-03-07T07:28:02.101Z,70.47
2023-03-07T07:30:35.921Z,71.74
2023-03-07T07:33:10.063Z,70.86
2023-03-07T07:35:46.529Z,71.03
2023-03-07T07:38:20.476Z,70.16
2023-03-07T07:40:54.200Z,67.01
2023-03-07T07:43:28.239Z,66.85
2023-03-07T07:46:09.663Z,67.10
2023-03-07T07:48:43.955Z,67.65
2023-03-07T07:51:18.748Z,67.47
2023-03-07T07:53:53.488Z,67.25
2023-03-07T07:56:27.436Z,67.58
2023-03-07T07:59:01.970Z,67.04
2023-03-07T08:01:36.282Z,66.87
2023-03-07T08:04:10.094Z,66.45
2023-03-07T08:06:44.601Z,66.00
2023-03-07T08:09:18.558Z,66.74
2023-03-07T08:11:52.072Z,67.25
2023-03-07T08:14:25.991Z,67.81
2023-03-07T08:17:00.116Z,64.61
2023-03-07T08:19:34.108Z,63.74
2023-03-07T08:22:08.264Z,63.18
2023-03-07T08:24:42.133Z,61.23
2023-03-07T08:27:15.501Z,57.66
2023-03-07T08:29:51.783Z,55.04
2023-03-07T08:32:26.135Z,54.92
2023-03-07T08:34:59.854Z,54.75
2023-03-07T08:37:33.649Z,56.54
2023-03-07T08:40:08.839Z,57.76
2023-03-07T08:42:42.784Z,57.67
2023-03-07T08:45:17.019Z,57.06
2023-03-07T08:47:50.425Z,55.63
2023-03-07T08:50:24.556Z,56.08
2023-03-07T08:52:58.870Z,55.40
2023-03-07T08:55:32.386Z,54.01
2023-03-07T08:58:06.391Z,54.61
2023-03-07T09:00:40.467Z,53.85
2023-03-07T09:03:14.234Z,52.59
2023-03-07T09:05:47.881Z,52.93
2023-03-07T09:08:21.864Z,53.47
2023-03-07T09:10:55.808Z,51.46
2023-03-07T09:13:29.654Z,52.12
2023-03-07T09:16:05.653Z,52.65
2023-03-07T09:18:40.294Z,52.11
2023-03-07T09:21:14.554Z,52.57
2023-03-07T09:23:48.766Z,52.56
2023-03-07T09:26:22.852Z,53.11
2023-03-07T09:28:56.332Z,53.41
2023-03-07T09:31:30.377Z,53.47
2023-03-07T09:34:05.882Z,51.52
2023-03-07T09:36:39.582Z,50.84
2023-03-07T09:39:14.934Z,53.00
2023-03-07T09:42:01.493Z,53.88
2023-03-07T09:45:13.951Z,53.97
2023-03-07T09:48:24.745Z,54.30
2023-03-07T09:51:07.615Z,54.20
2023-03-07T09:53:46.918Z,54.86
2023-03-07T09:56:27.513Z,55.43
2023-03-07T09:59:21.941Z,56.10
2023-03-07T10:02:06.367Z,54.52
2023-03-07T10:04:50.954Z,54.04
2023-03-07T10:07:27.245Z,54.60
2023-03-07T10:10:04.161Z,54.09
2023-03-07T10:13:03.757Z,53.87
2023-03-07T10:15:50.055Z,54.68
2023-03-07T10:18:43.927Z,55.21
2023-03-07T10:21:27.674Z,55.40
2023-03-07T10:24:23.760Z,56.01
2023-03-07T10:27:06.928Z,56.91
2023-03-07T10:29:47.266Z,57.36
2023-03-07T10:32:31.987Z,58.21
2023-03-07T10:35:19.406Z,59.18
2023-03-07T10:37:57.204Z,60.06
2023-03-07T10:40:36.648Z,60.68
2023-03-07T10:43:19.262Z,61.17
2023-03-07T10:46:24.656Z,61.45
2023-03-07T10:49:10.810Z,61.72
2023-03-07T10:51:55.724Z,61.87
2023-03-07T10:54:33.052Z,62.15
2023-03-07T10:57:15.892Z,62.59
2023-03-07T10:59:50.674Z,62.12
2023-03-07T11:02:41.425Z,61.88
2023-03-07T11:05:33.228Z,62.61
2023-03-07T11:08:28.295Z,62.71
2023-03-07T11:11:02.869Z,61.35
2023-03-07T11:13:36.922Z,60.25
2023-03-07T11:16:21.108Z,59.68
2023-03-07T11:18:55.311Z,59.53
2023-03-07T11:21:33.754Z,59.76
2023-03-07T11:24:22.412Z,60.55
2023-03-07T11:27:00.157Z,60.62
2023-03-07T11:29:35.247Z,60.23
2023-03-07T11:32:18.269Z,59.98
2023-03-07T11:34:55.055Z,60.14
2023-03-07T11:37:36.216Z,60.74
2023-03-07T11:40:24.647Z,59.27
2023-03-07T11:43:02.544Z,58.26
2023-03-07T11:45:43.704Z,57.72
2023-03-07T11:48:29.435Z,56.31
2023-03-07T11:51:05.025Z,55.21
2023-03-07T11:54:03.415Z,55.84
2023-03-07T11:56:42.490Z,55.91
2023-03-07T11:59:46.611Z,55.55
2023-03-07T12:02:42.049Z,55.56
2023-03-07T12:05:25.636Z,56.18
2023-03-07T12:08:20.280Z,56.42
2023-03-07T12:11:03.889Z,55.98
2023-03-07T12:13:50.362Z,57.01
2023-03-07T12:16:33.293Z,54.84
2023-03-07T12:19:34.748Z,54.67
2023-03-07T12:22:41.102Z,55.92
2023-03-07T12:25:25.187Z,54.02
2023-03-07T12:28:08.285Z,53.99
2023-03-07T12:30:59.480Z,53.03
2023-03-07T12:33:49.966Z,53.33
2023-03-07T12:36:32.970Z,54.11
2023-03-07T12:39:17.048Z,54.32
2023-03-07T12:42:03.671Z,55.28
2023-03-07T12:44:46.783Z,55.94
2023-03-07T12:47:27.320Z,56.06
2023-03-07T12:50:07.322Z,55.24
2023-03-07T12:52:46.852Z,55.07
2023-03-07T12:55:25.611Z,55.42
2023-03-07T12:58:03.354Z,55.10
2023-03-07T13:00:49.307Z,54.90
2023-03-07T13:03:37.339Z,55.66
2023-03-07T13:06:18.258Z,55.57
2023-03-07T13:08:55.068Z,55.72
2023-03-07T13:11:31.974Z,55.25
2023-03-07T13:14:07.172Z,55.14
2023-03-07T13:16:51.758Z,55.04
2023-03-07T13:19:52.507Z,55.53
2023-03-07T13:23:00.415Z,55.88
2023-03-07T13:25:57.667Z,56.30
2023-03-07T13:28:52.111Z,56.68
2023-03-07T13:31:44.482Z,57.08
2023-03-07T13:34:51.911Z,56.77
2023-03-07T13:37:54.308Z,56.87
2023-03-07T13:40:49.418Z,57.29
2023-03-07T13:44:05.475Z,57.56
2023-03-07T13:47:01.860Z,57.88
2023-03-07T13:49:51.976Z,57.96
2023-03-07T13:52:47.664Z,57.92
2023-03-07T13:55:28.614Z,58.08
2023-03-07T13:58:17.165Z,58.33
2023-03-07T14:01:05.457Z,58.45
2023-03-07T14:03:44.073Z,58.52
2023-03-07T14:06:21.708Z,58.55
2023-03-07T14:08:56.035Z,58.47
2023-03-07T14:11:35.595Z,58.72
2023-03-07T14:14:36.128Z,58.93
2023-03-07T14:17:23.577Z,58.91
2023-03-07T14:20:12.111Z,58.85
2023-03-07T14:23:05.858Z,59.00
2023-03-07T14:25:45.085Z,58.97
2023-03-07T14:28:29.794Z,58.69
2023-03-07T14:31:08.398Z,58.50
2023-03-07T14:33:43.213Z,58.37
2023-03-07T14:36:23.710Z,58.55
2023-03-07T14:39:02.455Z,58.33
2023-03-07T14:41:46.531Z,58.34
2023-03-07T14:44:40.875Z,57.76
2023-03-07T14:47:38.289Z,57.46
2023-03-07T14:50:19.073Z,57.00
2023-03-07T14:52:58.033Z,56.78
2023-03-07T14:55:37.556Z,56.67
2023-03-07T14:58:21.004Z,56.74
2023-03-07T15:01:04.033Z,56.83
2023-03-07T15:03:37.945Z,56.49
2023-03-07T15:06:18.758Z,56.53
2023-03-07T15:08:53.623Z,56.91
2023-03-07T15:11:33.318Z,56.57
2023-03-07T15:14:10.254Z,56.59
2023-03-07T15:16:49.929Z,56.79
2023-03-07T15:19:31.642Z,56.80
2023-03-07T15:22:11.159Z,56.30
2023-03-07T15:24:49.170Z,56.50
2023-03-07T15:27:28.031Z,56.46
2023-03-07T15:30:03.747Z,56.68
2023-03-07T15:32:39.496Z,56.38
2023-03-07T15:35:20.539Z,56.22
2023-03-07T15:37:58.902Z,56.26
2023-03-07T15:40:35.095Z,56.41
2023-03-07T15:43:28.792Z,56.43
2023-03-07T15:46:09.227Z,56.47
2023-03-07T15:48:49.471Z,56.42
2023-03-07T15:51:25.310Z,56.55
2023-03-07T15:54:12.420Z,56.45
2023-03-07T15:56:46.615Z,56.41
2023-03-07T15:59:26.990Z,56.25
2023-03-07T16:02:23.426Z,56.16
2023-03-07T16:04:59.065Z,56.55
2023-03-07T16:07:34.481Z,56.53
2023-03-07T16:10:09.502Z,56.58
2023-03-07T16:12:46.732Z,56.76
2023-03-07T16:15:23.225Z,56.75
2023-03-07T16:17:59.100Z,56.78
2023-03-07T16:20:33.810Z,56.68
2023-03-07T16:23:13.632Z,56.70
2023-03-07T16:25:49.221Z,56.87
2023-03-07T16:28:23.037Z,56.75
2023-03-07T16:30:57.549Z,56.79
2023-03-07T16:33:32.949Z,56.81
2023-03-07T16:36:07.221Z,56.77
2023-03-07T16:38:41.822Z,56.92
2023-03-07T16:41:19.099Z,56.98
2023-03-07T16:43:58.170Z,57.03
2023-03-07T16:46:32.376Z,57.17
2023-03-07T16:49:09.747Z,57.19
2023-03-07T16:51:47.298Z,57.21
2023-03-07T16:54:25.688Z,57.28
2023-03-07T16:57:00.203Z,57.30
2023-03-07T16:59:39.564Z,57.42
2023-03-07T17:02:19.945Z,57.47
2023-03-07T17:04:55.325Z,57.43
2023-03-07T17:07:31.682Z,57.41
2023-03-07T17:10:06.845Z,57.52
2023-03-07T17:12:44.358Z,57.71
2023-03-07T17:15:26.894Z,57.80
2023-03-07T17:18:03.161Z,57.77
2023-03-07T17:20:42.150Z,57.87
2023-03-07T17:23:23.029Z,57.84
2023-03-07T17:26:00.561Z,57.87
2023-03-07T17:28:38.044Z,57.89
2023-03-07T17:31:18.119Z,58.04
2023-03-07T17:33:53.989Z,58.11
2023-03-07T17:36:30.133Z,58.06
2023-03-07T17:39:12.122Z,58.22
2023-03-07T17:41:47.811Z,58.23
2023-03-07T17:44:24.575Z,58.19
2023-03-07T17:47:01.393Z,58.28
2023-03-07T17:49:40.922Z,58.33
2023-03-07T17:52:17.789Z,58.35
2023-03-07T17:54:53.439Z,58.27
2023-03-07T17:57:31.069Z,58.34
2023-03-07T18:00:13.634Z,58.42
2023-03-07T18:02:53.697Z,58.44
2023-03-07T18:05:34.660Z,58.58
2023-03-07T18:08:12.041Z,58.49
2023-03-07T18:10:51.584Z,58.49
2023-03-07T18:13:34.001Z,58.52
2023-03-07T18:16:13.937Z,58.49
2023-03-07T18:18:59.458Z,58.48
2023-03-07T18:21:40.081Z,58.46
2023-03-07T18:24:27.200Z,58.51
2023-03-07T18:27:11.323Z,58.57
2023-03-07T18:29:49.463Z,58.56
2023-03-07T18:32:29.149Z,58.50
2023-03-07T18:35:07.058Z,58.50
2023-03-07T18:37:47.069Z,58.70
2023-03-07T18:40:29.451Z,58.66
2023-03-07T18:43:09.400Z,58.67
2023-03-07T18:45:49.371Z,58.70
2023-03-07T18:48:26.316Z,58.67
2023-03-07T18:51:05.230Z,58.67
2023-03-07T18:53:43.122Z,58.84
2023-03-07T18:56:20.627Z,58.83
2023-03-07T18:59:00.957Z,59.04
2023-03-07T19:01:38.315Z,58.94
2023-03-07T19:04:16.540Z,58.85
2023-03-07T19:07:01.771Z,59.00
2023-03-07T19:09:38.505Z,59.04
2023-03-07T19:12:22.100Z,59.04
2023-03-07T19:15:00.172Z,59.26
2023-03-07T19:17:40.452Z,59.28
2023-03-07T19:20:18.793Z,59.26
2023-03-07T19:22:58.236Z,59.46
2023-03-07T19:25:38.525Z,59.62
2023-03-07T19:28:23.984Z,59.77
2023-03-07T19:31:09.402Z,60.16
2023-03-07T19:33:50.565Z,60.55
2023-03-07T19:36:29.165Z,60.59
2023-03-07T19:39:10.530Z,61.05
2023-03-07T19:41:49.111Z,61.49
2023-03-07T19:44:30.535Z,61.90
2023-03-07T19:47:17.841Z,62.28
2023-03-07T19:49:54.456Z,62.14
2023-03-07T19:52:37.157Z,62.29
2023-03-07T19:55:16.390Z,62.52
2023-03-07T19:57:59.034Z,62.52
2023-03-07T20:00:36.093Z,62.79
2023-03-07T20:03:18.442Z,63.11
2023-03-07T20:05:56.210Z,63.02
2023-03-07T20:08:35.481Z,63.26
2023-03-07T20:11:20.630Z,63.20
2023-03-07T20:13:59.669Z,63.21
2023-03-07T20:16:44.588Z,63.07
2023-03-07T20:19:23.719Z,62.95
2023-03-07T20:22:12.510Z,62.85
2023-03-07T20:24:54.668Z,62.73
2023-03-07T20:27:32.601Z,62.64
2023-03-07T20:30:22.023Z,62.67
2023-03-07T20:33:02.389Z,62.76
2023-03-07T20:35:40.426Z,62.81
2023-03-07T20:38:20.508Z,62.84
2023-03-07T20:41:05.197Z,62.96
2023-03-07T20:43:44.234Z,63.05
2023-03-07T20:46:30.097Z,63.19
2023-03-07T20:49:09.415Z,63.29
2023-03-07T20:52:01.937Z,63.30
2023-03-07T20:54:39.092Z,63.42
2023-03-07T20:57:17.632Z,63.72
2023-03-07T20:59:51.595Z,63.91
2023-03-07T21:02:29.455Z,64.21
2023-03-07T21:05:20.634Z,64.47
2023-03-07T21:07:55.352Z,64.50
2023-03-07T21:10:32.445Z,64.78
2023-03-07T21:13:14.632Z,64.90
2023-03-07T21:15:59.808Z,65.23
2023-03-07T21:18:37.087Z,65.22
2023-03-07T21:21:15.018Z,65.51
2023-03-07T21:23:53.297Z,65.82
2023-03-07T21:26:32.411Z,65.97
2023-03-07T21:29:09.797Z,65.85
2023-03-07T21:31:48.592Z,66.11
2023-03-07T21:34:24.507Z,66.31
2023-03-07T21:36:59.428Z,66.32
2023-03-07T21:39:37.146Z,66.40
2023-03-07T21:42:11.971Z,66.71
2023-03-07T21:44:50.951Z,66.76
2023-03-07T21:47:25.620Z,66.88
2023-03-07T21:50:02.015Z,67.07
2023-03-07T21:52:37.904Z,67.11
2023-03-07T21:55:19.591Z,67.22
2023-03-07T21:57:54.024Z,67.30
2023-03-07T22:00:30.665Z,67.32
2023-03-07T22:03:04.871Z,67.39
2023-03-07T22:05:41.062Z,67.45
2023-03-07T22:08:16.259Z,67.67
2023-03-07T22:11:02.217Z,68.03
2023-03-07T22:13:37.117Z,68.15
2023-03-07T22:16:14.201Z,68.31
2023-03-07T22:18:57.350Z,68.65
2023-03-07T22:21:30.891Z,68.35
2023-03-07T22:24:04.701Z,68.39
2023-03-07T22:26:39.049Z,68.25
2023-03-07T22:29:12.958Z,68.24
2023-03-07T22:31:47.058Z,68.27
2023-03-07T22:34:20.664Z,68.39
2023-03-07T22:36:56.693Z,68.41
2023-03-07T22:39:30.205Z,68.34
2023-03-07T22:42:04.014Z,68.30
2023-03-07T22:44:38.065Z,67.98
2023-03-07T22:47:12.136Z,67.65
2023-03-07T22:49:46.138Z,67.39
2023-03-07T22:52:20.867Z,67.22
2023-03-07T22:54:56.744Z,67.18
2023-03-07T22:57:30.454Z,67.00
2023-03-07T23:00:04.951Z,66.99
2023-03-07T23:02:39.057Z,67.14
2023-03-07T23:05:13.589Z,67.07
2023-03-07T23:07:48.708Z,67.27
2023-03-07T23:10:23.025Z,67.36
2023-03-07T23:12:56.645Z,67.53
2023-03-07T23:15:30.814Z,67.66
2023-03-07T23:18:04.698Z,67.71
2023-03-07T23:20:39.934Z,67.70
2023-03-07T23:23:14.090Z,67.85
2023-03-07T23:25:47.847Z,68.03
2023-03-07T23:28:22.056Z,68.21
2023-03-07T23:30:55.884Z,68.18
2023-03-07T23:33:30.201Z,68.30
2023-03-07T23:36:04.375Z,68.46
2023-03-07T23:38:38.490Z,68.67
2023-03-07T23:41:12.337Z,68.75
2023-03-07T23:43:46.724Z,69.04
2023-03-07T23:46:20.803Z,68.98
2023-03-07T23:48:55.379Z,68.99
2023-03-07T23:51:29.182Z,69.10
2023-03-07T23:54:02.745Z,69.36
2023-03-07T23:56:36.660Z,69.25
2023-03-07T23:59:10.247Z,69.48
